Flight Track Log - Related Links

Times and Time Zones

All times are in EDT time to prevent confusion due to time zone crossing. See the UAL139 flight status page for this flight to view local times or setup timezone preferences in your user account.

Time Position Orientation Groundspeed Altitude Reporting Facility
EDT Latitude Longitude Course Direction KTS MPH feet Rate Location/Type
Tue 03:02:23 PM 39.8570 -104.6760 315° West 10 12  Level FlightAware ADS-B
Tue 03:09:31 PM 39.8750 -104.6850 322° Northwest 27 31 337 Level FlightAware ADS-B
Tue 03:09:37 PM 39.8760 -104.6850 360° North 31 36 625 Level FlightAware ADS-B
Tue 03:09:58 PM 39.8770 -104.6850 360° North 21 24 633 Level FlightAware ADS-B
Tue 03:12:30 PM 39.8950 -104.6850 360° North 17 20 661 Level FlightAware ADS-B
Tue 03:16:00 PM 40.0739 -104.9501 312° West  Level Estimated
Tue 03:17:00 PM 40.1573 -105.0711 312° West  Level Estimated
Tue 03:17:03 PM 39.8960 -104.6960 312° West 19 22  Level FlightAware ADS-B
Tue 03:17:50 PM 39.8893 -104.6960 180° South 93 107 5,200 5,032 Climbing FlightAware ADS-B
Tue 03:18:05 PM 39.8801 -104.6960 180° South 151 174 5,200  Level FlightAware ADS-B
Tue 03:18:20 PM 39.8672 -104.6960 180° South 198 228 5,200 286 Level FlightAware ADS-B
Tue 03:18:26 PM 39.8616 -104.6970 188° South 211 243 5,300 1,667 Climbing FlightAware ADS-B
Tue 03:18:38 PM 39.8506 -104.6970 180° South 210 242 5,700 2,053 Climbing FlightAware ADS-B
Tue 03:19:04 PM 39.8251 -104.7030 190° South 225 259 6,600 1,818 Climbing FlightAware ADS-B
Tue 03:19:11 PM 39.8194 -104.7090 219° Southwest 232 267 6,700 1,200 Climbing FlightAware ADS-B
Tue 03:19:14 PM 39.8172 -104.7120 226° Southwest 237 273 6,800 1,000 Climbing FlightAware ADS-B
Tue 03:19:17 PM 39.8151 -104.7170 241° Southwest 243 280 6,800 1,000 Level FlightAware ADS-B
Tue 03:19:20 PM 39.8136 -104.7210 244° Southwest 249 287 6,900 1,333 Climbing FlightAware ADS-B
Tue 03:19:26 PM 39.8120 -104.7290 255° West 254 292 7,000 1,200 Climbing FlightAware ADS-B
Tue 03:19:30 PM 39.8118 -104.7350 268° West 256 295 7,100 1,500 Climbing FlightAware ADS-B
Tue 03:19:34 PM 39.8123 -104.7410 276° West 261 300 7,200 1,500 Climbing FlightAware ADS-B
Tue 03:19:38 PM 39.8137 -104.7470 287° West 263 303 7,300 2,250 Climbing FlightAware ADS-B
Tue 03:19:42 PM 39.8161 -104.7540 294° West 266 306 7,500 2,000 Climbing FlightAware ADS-B
Tue 03:19:50 PM 39.8210 -104.7640 303° West 271 312 7,700 1,500 Climbing FlightAware ADS-B
Tue 03:19:54 PM 39.8241 -104.7690 309° West 275 316 7,800 1,714 Climbing FlightAware ADS-B
Tue 03:20:11 PM 39.8398 -104.7920 312° West 289 333 8,300 1,941 Climbing FlightAware ADS-B
Tue 03:20:28 PM 39.8549 -104.8130 313° West 294 338 8,900 2,087 Climbing FlightAware ADS-B
Tue 03:20:34 PM 39.8610 -104.8210 315° West 297 342 9,100 1,846 Climbing FlightAware ADS-B
Tue 03:20:41 PM 39.8681 -104.8270 327° Northwest 300 345 9,300 2,000 Climbing FlightAware ADS-B
Tue 03:20:49 PM 39.8788 -104.8340 333° Northwest 303 349 9,600 1,600 Climbing FlightAware ADS-B
Tue 03:21:41 PM 39.9547 -104.8530 349° North 308 354 10,900 1,500 Climbing FlightAware ADS-B
Tue 03:22:13 PM 40.0060 -104.8670 348° North 368 423 11,700 2,000 Climbing FlightAware ADS-B
Tue 03:22:44 PM 40.0583 -104.8800 349° North 371 427 13,000 2,476 Climbing FlightAware ADS-B
Tue 03:23:16 PM 40.1127 -104.8950 348° North 373 429 14,300 2,492 Climbing FlightAware ADS-B
Tue 03:23:49 PM 40.1692 -104.9100 349° North 379 436 15,700 2,438 Climbing FlightAware ADS-B
Tue 03:24:20 PM 40.2226 -104.9240 349° North 385 443 16,900 2,164 Climbing FlightAware ADS-B
Tue 03:24:50 PM 40.2760 -104.9380 349° North 390 449 17,900 2,806 Climbing FlightAware ADS-B
Tue 03:25:22 PM 40.3311 -104.9520 349° North 371 427 19,800 3,143 Climbing FlightAware ADS-B
Tue 03:25:53 PM 40.3819 -104.9660 348° North 363 418 21,200 2,361 Climbing FlightAware ADS-B
Tue 03:26:23 PM 40.4316 -104.9790 349° North 368 423 22,200 2,000 Climbing FlightAware ADS-B
Tue 03:26:53 PM 40.4831 -104.9930 348° North 369 425 23,200 1,869 Climbing FlightAware ADS-B
Tue 03:27:24 PM 40.5343 -105.0060 349° North 375 432 24,100 1,672 Climbing FlightAware ADS-B
Tue 03:27:54 PM 40.5857 -105.0200 348° North 379 436 24,900 1,082 Climbing FlightAware ADS-B
Tue 03:28:25 PM 40.6390 -105.0340 349° North 373 429 25,200 295 Climbing FlightAware ADS-B
Tue 03:28:55 PM 40.6896 -105.0480 348° North 372 428 25,200  Level FlightAware ADS-B
Tue 03:29:22 PM 40.7351 -105.0600 349° North 371 427 25,200  Level FlightAware ADS-B
Tue 03:29:31 PM 40.7496 -105.0660 343° North 369 425 25,200  Level FlightAware ADS-B
Tue 03:29:36 PM 40.7576 -105.0690 344° North 367 422 25,200 -462 Level FlightAware ADS-B
Tue 03:29:44 PM 40.7699 -105.0780 331° Northwest 366 421 25,100 -571 Descending FlightAware ADS-B
Tue 03:29:57 PM 40.7881 -105.0940 326° Northwest 365 420 25,000 -140 Descending FlightAware ADS-B
Tue 03:30:27 PM 40.8267 -105.1380 319° Northwest 365 420 25,000  Level FlightAware ADS-B
Tue 03:30:58 PM 40.8652 -105.1810 320° Northwest 358 412 25,000  Level FlightAware ADS-B
Tue 03:31:45 PM 40.9230 -105.2470 319° Northwest 356 410 25,000  Level FlightAware ADS-B
Tue 03:32:28 PM 40.9760 -105.3070 319° Northwest 360 414 25,000  Level FlightAware ADS-B
Tue 03:33:10 PM 41.0310 -105.3700 319° Northwest 361 415 25,000  Level FlightAware ADS-B
Tue 03:33:51 PM 41.0830 -105.4280 320° Northwest 362 417 25,000  Level FlightAware ADS-B
Tue 03:34:24 PM 41.1250 -105.4770 319° Northwest 365 420 25,000  Level FlightAware ADS-B
Tue 03:35:08 PM 41.1810 -105.5400 320° Northwest 361 415 25,000  Level FlightAware ADS-B
Tue 03:36:20 PM 41.2280 -105.5950 319° Northwest 363 418 25,000  Level FlightAware ADS-B
Tue 03:36:56 PM 41.3140 -105.7030 317° Northwest 362 417 25,000  Level FlightAware ADS-B
Tue 03:37:27 PM 41.3490 -105.7520 314° West 361 415 25,000  Level FlightAware ADS-B
Tue 03:38:14 PM 41.4030 -105.8290 313° West 370 426 25,000 202 Level FlightAware ADS-B
Tue 03:38:56 PM 41.4590 -105.8930 319° Northwest 385 443 25,300 659 Climbing FlightAware ADS-B
Tue 03:39:36 PM 41.5180 -105.9510 324° Northwest 404 465 25,900 951 Climbing FlightAware ADS-B
Tue 03:40:18 PM 41.5840 -106.0100 326° Northwest 419 482 26,600 532 Climbing FlightAware ADS-B
Tue 03:40:55 PM 41.6360 -106.0530 328° Northwest 419 482 26,600  Level FlightAware ADS-B
Tue 03:41:36 PM 41.6930 -106.1010 328° Northwest 419 482 26,600  Level FlightAware ADS-B
Tue 03:42:24 PM 41.7600 -106.1580 328° Northwest 419 482 26,600  Level FlightAware ADS-B
Tue 03:43:23 PM 41.8430 -106.2270 328° Northwest 419 482 26,600  Level FlightAware ADS-B
Tue 03:44:00 PM 41.8940 -106.2700 328° Northwest 419 482 26,600 3,759 Level FlightAware ADS-B
Tue 03:44:46 PM 42.0572 -106.3939 328° Northwest 462 532 31,800 3,444 Climbing Salt Lake Center
Tue 03:45:48 PM 42.1675 -106.4767 331° Northwest 468 539 32,800 871 Climbing Salt Lake Center
Tue 03:46:50 PM 42.2861 -106.5972 323° Northwest 476 548 33,600 969 Climbing Salt Lake Center
Tue 03:47:58 PM 42.3717 -106.7553 306° West 473 544 34,900 1,108 Climbing Denver Center
Tue 03:49:00 PM 42.4481 -106.8936 307° West 471 542 36,000 532 Climbing Denver Center
Tue 03:50:02 PM 42.5317 -107.0522 306° West 469 540 36,000  Level Denver Center
Tue 03:51:04 PM 42.6025 -107.1861 306° West 464 534 36,000  Level Denver Center
Tue 03:52:05 PM 42.6853 -107.3433 306° West 462 532 36,000  Level Denver Center
Tue 03:53:01 PM 42.7464 -107.4589 306° West 462 532 36,000  Level Salt Lake Center
Tue 03:54:03 PM 42.8289 -107.6167 306° West 462 532 36,000  Level Salt Lake Center
Tue 03:55:04 PM 42.9003 -107.7536 305° West 463 533 36,000  Level Salt Lake Center
Tue 03:56:06 PM 42.9833 -107.9144 305° West 465 535 36,000  Level Salt Lake Center
Tue 03:57:08 PM 43.0550 -108.0522 305° West 466 536 36,000  Level Salt Lake Center
Tue 03:58:10 PM 43.1381 -108.2139 305° West 466 536 36,000  Level Salt Lake Center
Tue 03:59:11 PM 43.2069 -108.3489 305° West 458 527 36,000  Level Salt Lake Center
Tue 04:00:13 PM 43.2886 -108.5106 305° West 461 531 36,000  Level Salt Lake Center
Tue 04:01:15 PM 43.3589 -108.6483 305° West 462 532 36,000  Level Salt Lake Center
Tue 04:02:17 PM 43.4278 -108.7869 304° West 461 531 36,000  Level Salt Lake Center
Tue 04:03:18 PM 43.5089 -108.9467 305° West 458 527 36,000  Level Salt Lake Center
Tue 04:04:20 PM 43.5781 -109.0867 304° West 459 528 36,000  Level Salt Lake Center
Tue 04:05:22 PM 43.6597 -109.2503 305° West 463 533 36,000  Level Salt Lake Center
Tue 04:06:23 PM 43.7294 -109.3911 304° West 464 534 36,000  Level Salt Lake Center
Tue 04:07:25 PM 43.8117 -109.5553 305° West 464 534 36,000  Level Salt Lake Center
Tue 04:08:27 PM 43.8817 -109.6986 304° West 467 537 36,000  Level Salt Lake Center
Tue 04:09:28 PM 43.9514 -109.8433 304° West 470 541 36,000  Level Salt Lake Center
Tue 04:10:30 PM 44.0322 -110.0103 304° West 468 539 36,000  Level Salt Lake Center
Tue 04:11:32 PM 44.1008 -110.1550 303° West 468 539 36,000  Level Salt Lake Center
Tue 04:12:33 PM 44.1817 -110.3236 304° West 469 540 36,000  Level Salt Lake Center
Tue 04:13:35 PM 44.2519 -110.4700 304° West 474 545 36,000  Level Salt Lake Center
Tue 04:14:36 PM 44.3319 -110.6400 303° West 471 542 36,000  Level Salt Lake Center
Tue 04:15:38 PM 44.4003 -110.7861 303° West 470 541 36,000  Level Salt Lake Center
Tue 04:16:40 PM 44.4814 -110.9572 304° West 473 544 36,000  Level Salt Lake Center
Tue 04:17:41 PM 44.5506 -111.1047 303° West 475 547 36,000  Level Salt Lake Center
Tue 04:18:43 PM 44.6308 -111.2783 303° West 480 552 36,000  Level Salt Lake Center
Tue 04:19:45 PM 44.6975 -111.4247 303° West 477 549 36,000  Level Salt Lake Center
Tue 04:20:46 PM 44.7761 -111.5964 303° West 475 547 36,000  Level Salt Lake Center
Tue 04:21:48 PM 44.8442 -111.7456 303° West 474 545 36,000  Level Salt Lake Center
Tue 04:22:50 PM 44.9122 -111.8961 303° West 476 548 36,000  Level Salt Lake Center
Tue 04:23:51 PM 44.9903 -112.0714 302° West 475 547 36,000  Level Salt Lake Center
Tue 04:24:53 PM 45.0583 -112.2222 303° West 476 548 36,000  Level Salt Lake Center
Tue 04:25:55 PM 45.1369 -112.3972 303° West 474 545 36,000  Level Salt Lake Center
Tue 04:26:56 PM 45.2039 -112.5506 302° West 476 548 36,000  Level Salt Lake Center
Tue 04:27:58 PM 45.2822 -112.7275 302° West 475 547 36,000  Level Salt Lake Center
Tue 04:29:00 PM 45.3481 -112.8794 302° West 472 543 36,000  Level Salt Lake Center
Tue 04:30:02 PM 45.4172 -113.0375 302° West 477 549 36,000  Level Salt Lake Center
Tue 04:31:03 PM 45.4861 -113.1967 302° West 473 544 36,000  Level Salt Lake Center
Tue 04:32:05 PM 45.5539 -113.3567 301° West 471 542 36,000  Level Salt Lake Center
Tue 04:33:07 PM 45.6233 -113.5561 297° West 470 541 36,000 -49 Level Salt Lake Center
Tue 04:34:08 PM 45.6297 -113.7039 274° West 457 526 35,900  Descending Salt Lake Center
Tue 04:35:10 PM 45.6194 -113.9194 266° West 455 524 36,000 48 Climbing Salt Lake Center
Tue 04:36:12 PM 45.6433 -114.0978 281° West 471 542 36,000  Level Salt Lake Center
Tue 04:37:45 PM 45.7581 -114.3281 306° West 484 557 36,000  Level Seattle Center
Tue 04:38:15 PM 45.7956 -114.4131 302° West 484 557 36,000  Level Salt Lake Center
Tue 04:39:17 PM 45.8717 -114.6000 300° West 487 560 36,000  Level Salt Lake Center
Tue 04:40:19 PM 45.9419 -114.7564 303° West 489 563 36,000  Level Salt Lake Center
Tue 04:41:21 PM 46.0222 -114.9406 302° West 488 562 36,000  Level Salt Lake Center
Tue 04:42:22 PM 46.0939 -115.1081 302° West 484 557 36,000 -49 Level Salt Lake Center
Tue 04:43:24 PM 46.1539 -115.2494 302° West 484 557 35,900  Descending Salt Lake Center
Tue 04:44:26 PM 46.2386 -115.4503 301° West 489 563 36,000  Climbing Salt Lake Center
Tue 04:45:28 PM 46.3100 -115.6186 302° West 491 565 35,900 -49 Descending Salt Lake Center
Tue 04:46:29 PM 46.3806 -115.7856 302° West 488 562 35,900 49 Level Salt Lake Center
Tue 04:47:31 PM 46.4517 -115.9578 301° West 495 570 36,000 48 Climbing Salt Lake Center
Tue 04:48:33 PM 46.5222 -116.1281 301° West 494 568 36,000  Level Salt Lake Center
Tue 04:49:35 PM 46.5936 -116.2992 301° West 495 570 36,000 -48 Level Salt Lake Center
Tue 04:50:37 PM 46.6636 -116.4700 301° West 493 567 35,900  Descending Salt Lake Center
Tue 04:57:08 PM 47.1260 -117.6240 301° West 493 567 36,000 14 Climbing FlightAware ADS-B
Tue 04:57:49 PM 47.1730 -117.7450 300° West 495 570 36,000  Level FlightAware ADS-B
Tue 04:58:29 PM 47.2190 -117.8620 300° West 496 571 36,000  Level FlightAware ADS-B
Tue 04:59:15 PM 47.2710 -117.9970 300° West 495 570 36,000  Level FlightAware ADS-B
Tue 04:59:54 PM 47.3130 -118.1080 299° West 494 568 36,000  Level FlightAware ADS-B
Tue 05:00:32 PM 47.3560 -118.2200 300° West 493 567 36,000  Level FlightAware ADS-B
Tue 05:01:17 PM 47.4070 -118.3530 300° West 493 567 36,000  Level FlightAware ADS-B
Tue 05:01:59 PM 47.4540 -118.4770 299° West 489 563 36,000  Level FlightAware ADS-B
Tue 05:02:43 PM 47.5020 -118.6040 299° West 493 567 36,000 138 Level FlightAware ADS-B
Tue 05:03:26 PM 47.5500 -118.7300 299° West 495 570 36,200 600 Climbing FlightAware ADS-B
Tue 05:04:03 PM 47.5910 -118.8410 299° West 493 567 36,800 795 Climbing FlightAware ADS-B
Tue 05:04:49 PM 47.6420 -118.9780 299° West 496 571 37,300 628 Climbing FlightAware ADS-B
Tue 05:05:29 PM 47.6860 -119.0950 299° West 498 573 37,700 512 Climbing FlightAware ADS-B
Tue 05:06:11 PM 47.7330 -119.2210 299° West 497 572 38,000 209 Climbing FlightAware ADS-B
Tue 05:06:55 PM 47.7810 -119.3520 299° West 497 572 38,000  Level FlightAware ADS-B
Tue 05:07:33 PM 47.8230 -119.4660 299° West 497 572 38,000  Level FlightAware ADS-B
Tue 05:08:20 PM 47.8740 -119.6070 298° West 498 573 38,000  Level FlightAware ADS-B
Tue 05:09:01 PM 47.9190 -119.7320 298° West 498 573 38,000  Level FlightAware ADS-B
Tue 05:09:45 PM 47.9670 -119.8630 299° West 497 572 38,000  Level FlightAware ADS-B
Tue 05:10:27 PM 48.0120 -119.9900 298° West 498 573 38,000  Level FlightAware ADS-B
Tue 05:11:00 PM 48.0480 -120.0890 299° West 502 578 38,000  Level FlightAware ADS-B
Tue 05:11:48 PM 48.1000 -120.2370 298° West 497 572 38,000  Level FlightAware ADS-B
Tue 05:12:28 PM 48.1430 -120.3590 298° West 499 574 38,000  Level FlightAware ADS-B
Tue 05:13:14 PM 48.1930 -120.4990 298° West 498 573 38,000  Level FlightAware ADS-B
Tue 05:13:54 PM 48.2350 -120.6190 298° West 495 570 38,000  Level FlightAware ADS-B
Tue 05:14:35 PM 48.2750 -120.7340 298° West 496 571 38,000  Level FlightAware ADS-B
Tue 05:15:17 PM 48.3100 -120.8340 298° West 496 571 38,000  Level FlightAware ADS-B
Tue 05:15:50 PM 48.3570 -120.9710 297° West 495 570 38,000  Level FlightAware ADS-B
Tue 05:16:35 PM 48.4050 -121.1100 298° West 496 571 38,000  Level FlightAware ADS-B
Tue 05:17:20 PM 48.4520 -121.2490 297° West 498 573 38,000  Level FlightAware ADS-B
Tue 05:18:00 PM 48.4940 -121.3730 297° West 503 579 38,000  Level FlightAware ADS-B
Tue 05:18:40 PM 48.5370 -121.4970 298° West 504 580 38,000  Level FlightAware ADS-B
Tue 05:19:25 PM 48.5840 -121.6370 297° West 503 579 38,000  Level FlightAware ADS-B
Tue 05:20:05 PM 48.6250 -121.7600 297° West 504 580 38,000  Level FlightAware ADS-B
Tue 05:20:50 PM 48.6720 -121.9010 297° West 505 581 38,000  Level FlightAware ADS-B
Tue 05:21:30 PM 48.7150 -122.0310 297° West 506 582 38,000  Level FlightAware ADS-B
Tue 05:22:13 PM 48.7600 -122.1670 297° West 509 586 38,000  Level FlightAware ADS-B
Tue 05:22:55 PM 48.8050 -122.3030 297° West 510 587 38,000  Level FlightAware ADS-B
Tue 05:23:33 PM 48.8440 -122.4240 296° West 509 586 38,000  Level FlightAware ADS-B
Tue 05:24:15 PM 48.8880 -122.5590 296° West 510 587 38,000  Level FlightAware ADS-B
Tue 05:24:59 PM 48.9340 -122.7000 296° West 510 587 38,000  Level FlightAware ADS-B
Tue 05:25:39 PM 48.9750 -122.8290 296° West 514 592 38,000  Level FlightAware ADS-B
Tue 05:26:25 PM 49.0230 -122.9780 296° West 514 592 38,000  Level FlightAware ADS-B
Tue 05:27:05 PM 49.0650 -123.1090 296° West 516 594 38,000  Level FlightAware ADS-B
Tue 05:27:49 PM 49.1230 -123.2430 304° West 520 598 38,000  Level FlightAware ADS-B
Tue 05:28:31 PM 49.1830 -123.3680 306° West 522 601 38,000  Level FlightAware ADS-B
Tue 05:29:14 PM 49.2440 -123.4940 307° West 522 601 38,000  Level FlightAware ADS-B
Tue 05:29:52 PM 49.2980 -123.6070 306° West 522 601 38,000  Level FlightAware ADS-B
Tue 05:30:30 PM 49.3530 -123.7220 306° West 521 600 38,000  Level FlightAware ADS-B
Tue 05:31:18 PM 49.4200 -123.8630 306° West 519 597 38,000  Level FlightAware ADS-B
Tue 05:32:00 PM 49.4790 -123.9890 306° West 520 598 38,000  Level FlightAware ADS-B
Tue 05:32:40 PM 49.5360 -124.1110 306° West 522 601 38,000  Level FlightAware ADS-B
Tue 05:33:24 PM 49.5970 -124.2410 306° West 521 600 38,000  Level FlightAware ADS-B
Tue 05:34:04 PM 49.6540 -124.3640 306° West 517 595 38,000  Level FlightAware ADS-B
Tue 05:34:48 PM 49.7140 -124.4930 306° West 515 593 38,000  Level FlightAware ADS-B
Tue 05:35:32 PM 49.7750 -124.6240 306° West 514 592 38,000  Level FlightAware ADS-B
Tue 05:36:12 PM 49.8300 -124.7460 305° West 514 592 38,000  Level FlightAware ADS-B
Tue 05:36:52 PM 49.8850 -124.8650 306° West 516 594 38,000  Level FlightAware ADS-B
Tue 05:37:32 PM 49.9400 -124.9870 305° West 516 594 38,000  Level FlightAware ADS-B
Tue 05:38:18 PM 49.9990 -125.1180 305° West 516 594 38,000  Level FlightAware ADS-B
Tue 05:39:00 PM 50.0600 -125.2540 305° West 517 595 38,000  Level FlightAware ADS-B
Tue 05:39:53 PM 50.1320 -125.4130 305° West 512 589 38,000  Level FlightAware ADS-B
Tue 05:40:39 PM 50.1930 -125.5500 305° West 515 593 38,000  Level FlightAware ADS-B
Tue 05:41:21 PM 50.2420 -125.6610 305° West 514 592 38,000  Level FlightAware ADS-B
Tue 05:42:00 PM 50.3010 -125.7970 304° West 515 593 38,000  Level FlightAware ADS-B
Tue 05:42:45 PM 50.3640 -125.9380 305° West 513 590 38,000  Level FlightAware ADS-B
Tue 05:43:21 PM 50.4070 -126.0360 305° West 513 590 38,000  Level FlightAware ADS-B
Tue 05:44:05 PM 50.4690 -126.1800 304° West 513 590 38,000  Level FlightAware ADS-B
Tue 05:44:50 PM 50.5290 -126.3190 304° West 514 592 38,000  Level FlightAware ADS-B
Tue 05:45:40 PM 50.5920 -126.4660 304° West 514 592 38,000  Level FlightAware ADS-B
Tue 05:46:56 PM 50.6900 -126.6960 304° West 515 593 38,000  Level FlightAware ADS-B
Tue 05:47:45 PM 50.7590 -126.8570 304° West 516 594 38,000  Level FlightAware ADS-B
Tue 05:48:35 PM 50.8260 -127.0170 304° West 517 595 38,000  Level FlightAware ADS-B
Tue 05:49:15 PM 50.8790 -127.1430 304° West 508 585 38,000  Level FlightAware ADS-B
Tue 05:50:10 PM 50.9450 -127.3000 304° West 508 585 38,000  Level FlightAware ADS-B
Tue 05:51:41 PM 51.0460 -127.5400 304° West 508 585 38,000  Level FlightAware ADS-B
Tue 05:52:30 PM 51.0220 -127.4870 126° Southeast 508 585 38,000  Level FlightAware ADS-B
Tue 05:53:10 PM 51.0670 -127.5920 304° West 508 585 38,000  Level FlightAware ADS-B
Tue 05:53:46 PM 51.1070 -127.6870 304° West 508 585 38,000  Level FlightAware ADS-B
Tue 05:54:33 PM 51.1600 -127.8110 304° West 508 585 38,000  Level FlightAware ADS-B
Tue 05:55:15 PM 51.2070 -127.9220 304° West 508 585 38,000  Level FlightAware ADS-B
Tue 05:55:56 PM 51.2520 -128.0310 303° West 508 585 38,000  Level FlightAware ADS-B
Tue 05:56:34 PM 51.2950 -128.1320 304° West 508 585 38,000  Level FlightAware ADS-B
Tue 05:57:22 PM 51.3490 -128.2590 304° West 508 585 38,000  Level FlightAware ADS-B
Tue 05:58:11 PM 51.4030 -128.3890 304° West 508 585 38,000  Level FlightAware ADS-B
Tue 05:58:59 PM 51.4570 -128.5160 304° West 508 585 38,000  Level FlightAware ADS-B
Tue 05:59:36 PM 51.4980 -128.6150 304° West 508 585 38,000  Level FlightAware ADS-B
Tue 06:00:37 PM 51.5660 -128.7770 304° West 508 585 38,000  Level FlightAware ADS-B
Tue 06:01:14 PM 51.6080 -128.8760 304° West 508 585 38,000 -3,176 Level FlightAware ADS-B
Tue 06:02:19 PM 51.6667 -128.1333 304° West 390 449 32,600 -2,640 Descending Vancouver Center
Tue 06:03:19 PM 51.6000 -128.0000 129° Southeast 390 449 32,500 -100 Descending Vancouver Center
Tue 06:04:19 PM 51.5167 -127.8500 132° Southeast 380 437 32,400 -150 Descending Vancouver Center
Tue 06:05:19 PM 51.4500 -127.7333 132° Southeast 380 437 32,200 -200 Descending Vancouver Center
Tue 06:06:19 PM 51.3833 -127.6167 132° Southeast 380 437 32,000 -105 Descending Vancouver Center
Tue 06:12:00 PM 50.9780 -126.9090 132° Southeast 375 432 31,500 -94 Descending FlightAware ADS-B
Tue 06:12:40 PM 50.9320 -126.8340 134° Southeast 374 430 31,400 -75 Descending FlightAware ADS-B
Tue 06:13:20 PM 50.8860 -126.7590 134° Southeast 372 428 31,400 -71 Level FlightAware ADS-B
Tue 06:14:05 PM 50.8320 -126.6720 134° Southeast 369 425 31,300 -212 Descending FlightAware ADS-B
Tue 06:14:45 PM 50.7820 -126.5910 134° Southeast 354 407 31,100 -282 Descending FlightAware ADS-B
Tue 06:15:30 PM 50.7330 -126.5120 134° Southeast 345 397 30,900 -282 Descending FlightAware ADS-B
Tue 06:16:10 PM 50.6870 -126.4390 135° Southeast 342 394 30,700 -300 Descending FlightAware ADS-B
Tue 06:16:50 PM 50.6450 -126.3720 135° Southeast 338 389 30,500 -300 Descending FlightAware ADS-B
Tue 06:17:30 PM 50.6010 -126.3010 134° Southeast 340 391 30,300 -282 Descending FlightAware ADS-B
Tue 06:18:15 PM 50.5510 -126.2210 135° Southeast 341 392 30,100 -267 Descending FlightAware ADS-B
Tue 06:19:00 PM 50.5020 -126.1440 135° Southeast 333 383 29,900 -212 Descending FlightAware ADS-B
Tue 06:19:40 PM 50.4610 -126.0790 135° Southeast 329 379 29,800 -225 Descending FlightAware ADS-B
Tue 06:20:20 PM 50.4160 -126.0090 135° Southeast 328 377 29,600 -282 Descending FlightAware ADS-B
Tue 06:21:05 PM 50.3670 -125.9320 135° Southeast 328 377 29,400 -282 Descending FlightAware ADS-B
Tue 06:21:45 PM 50.3250 -125.8660 135° Southeast 323 372 29,200 -293 Descending FlightAware ADS-B
Tue 06:22:27 PM 50.2840 -125.8010 135° Southeast 320 368 29,000 -282 Descending FlightAware ADS-B
Tue 06:23:10 PM 50.2360 -125.7270 135° Southeast 318 366 28,800 -289 Descending FlightAware ADS-B
Tue 06:23:50 PM 50.1960 -125.6640 135° Southeast 316 364 28,600 -282 Descending FlightAware ADS-B
Tue 06:24:35 PM 50.1490 -125.5920 136° Southeast 316 364 28,400 -267 Descending FlightAware ADS-B
Tue 06:25:20 PM 50.1040 -125.5220 135° Southeast 313 360 28,200 -212 Descending FlightAware ADS-B
Tue 06:26:00 PM 50.0640 -125.4600 135° Southeast 311 358 28,100 -225 Descending FlightAware ADS-B
Tue 06:26:40 PM 50.0210 -125.3950 136° Southeast 313 360 27,900 -300 Descending FlightAware ADS-B
Tue 06:27:20 PM 49.9800 -125.3330 136° Southeast 311 358 27,700 -282 Descending FlightAware ADS-B
Tue 06:28:05 PM 49.9350 -125.2640 135° Southeast 309 356 27,500 -267 Descending FlightAware ADS-B
Tue 06:28:50 PM 49.8890 -125.1930 135° Southeast 306 352 27,300 -282 Descending FlightAware ADS-B
Tue 06:29:30 PM 49.8490 -125.1320 135° Southeast 306 352 27,100 -300 Descending FlightAware ADS-B
Tue 06:30:10 PM 49.8090 -125.0710 135° Southeast 308 354 26,900 -225 Descending FlightAware ADS-B
Tue 06:30:50 PM 49.7670 -125.0120 138° Southeast 307 353 26,800 -212 Descending FlightAware ADS-B
Tue 06:31:35 PM 49.7190 -124.9480 139° Southeast 305 351 26,600 -282 Descending FlightAware ADS-B
Tue 06:32:15 PM 49.6770 -124.8910 139° Southeast 302 348 26,400 -282 Descending FlightAware ADS-B
Tue 06:33:00 PM 49.6300 -124.8270 139° Southeast 299 344 26,200 -282 Descending FlightAware ADS-B
Tue 06:33:40 PM 49.5890 -124.7720 139° Southeast 300 345 26,000 -282 Descending FlightAware ADS-B
Tue 06:34:25 PM 49.5410 -124.7090 140° Southeast 299 344 25,800 -270 Descending FlightAware ADS-B
Tue 06:35:09 PM 49.4950 -124.6470 139° Southeast 296 341 25,600 -279 Descending FlightAware ADS-B
Tue 06:35:51 PM 49.4520 -124.5900 139° Southeast 293 337 25,400 -293 Descending FlightAware ADS-B
Tue 06:36:31 PM 49.4110 -124.5360 139° Southeast 294 338 25,200 -220 Descending FlightAware ADS-B
Tue 06:37:13 PM 49.3670 -124.4770 139° Southeast 297 342 25,100 -222 Descending FlightAware ADS-B
Tue 06:37:52 PM 49.3270 -124.4250 140° Southeast 296 341 24,900 -286 Descending FlightAware ADS-B
Tue 06:38:37 PM 49.2810 -124.3640 139° Southeast 294 338 24,700 -279 Descending FlightAware ADS-B
Tue 06:39:18 PM 49.2380 -124.3080 140° Southeast 293 337 24,500 -289 Descending FlightAware ADS-B
Tue 06:40:00 PM 49.1950 -124.2510 139° Southeast 292 336 24,300 -161 Descending FlightAware ADS-B
Tue 06:41:10 PM 49.1690 -124.2170 139° Southeast 285 328 24,200 -270 Descending FlightAware ADS-B
Tue 06:41:51 PM 49.0830 -124.1040 139° Southeast 281 323 23,800 -434 Descending FlightAware ADS-B
Tue 06:42:33 PM 49.0410 -124.0500 140° Southeast 278 320 23,600 -279 Descending FlightAware ADS-B
Tue 06:43:17 PM 48.9960 -123.9920 140° Southeast 277 319 23,400 -217 Descending FlightAware ADS-B
Tue 06:43:56 PM 48.9560 -123.9400 140° Southeast 277 319 23,300 -300 Descending FlightAware ADS-B
Tue 06:44:37 PM 48.9180 -123.8910 140° Southeast 279 321 23,000 -222 Descending FlightAware ADS-B
Tue 06:45:17 PM 48.8780 -123.8390 139° Southeast 276 318 23,000  Level FlightAware ADS-B
Tue 06:46:04 PM 48.8290 -123.7760 140° Southeast 280 322 23,000  Level FlightAware ADS-B
Tue 06:46:46 PM 48.7880 -123.7240 140° Southeast 280 322 23,000  Level FlightAware ADS-B
Tue 06:47:27 PM 48.7540 -123.6800 140° Southeast 280 322 23,000  Level FlightAware ADS-B
Tue 06:48:12 PM 48.7030 -123.6160 140° Southeast 280 322 23,000  Level FlightAware ADS-B
Tue 06:48:54 PM 48.6610 -123.5620 140° Southeast 280 322 23,000 -146 Level FlightAware ADS-B
Tue 06:49:34 PM 48.6220 -123.5120 140° Southeast 286 329 22,800 -875 Descending FlightAware ADS-B
Tue 06:50:30 PM 48.5610 -123.4350 140° Southeast 313 360 21,600 -1,366 Descending FlightAware ADS-B
Tue 06:51:15 PM 48.5120 -123.3730 140° Southeast 311 358 20,500 -1,465 Descending FlightAware ADS-B
Tue 06:51:56 PM 48.4660 -123.3150 140° Southeast 309 356 19,500 -1,446 Descending FlightAware ADS-B
Tue 06:52:38 PM 48.4200 -123.2570 140° Southeast 306 352 18,500 -1,390 Descending FlightAware ADS-B
Tue 06:53:18 PM 48.3770 -123.2030 140° Southeast 303 349 17,600 -1,071 Descending FlightAware ADS-B
Tue 06:54:02 PM 48.3310 -123.1450 140° Southeast 293 337 17,000 -847 Descending FlightAware ADS-B
Tue 06:54:43 PM 48.2890 -123.0930 141° Southeast 293 337 16,400 -1,098 Descending FlightAware ADS-B
Tue 06:55:24 PM 48.2460 -123.0390 140° Southeast 289 333 15,500 -1,694 Descending FlightAware ADS-B
Tue 06:56:08 PM 48.2000 -122.9820 140° Southeast 289 333 14,000 -1,694 Descending FlightAware ADS-B
Tue 06:56:49 PM 48.1590 -122.9310 140° Southeast 287 330 13,100 -1,390 Descending FlightAware ADS-B
Tue 06:57:30 PM 48.1160 -122.8780 141° Southeast 284 327 12,100 -1,481 Descending FlightAware ADS-B
Tue 06:58:10 PM 48.0760 -122.8290 141° Southeast 286 329 11,100 -1,357 Descending FlightAware ADS-B
Tue 06:58:54 PM 48.0310 -122.7730 140° Southeast 282 325 10,200 -917 Descending FlightAware ADS-B
Tue 06:59:22 PM 48.0060 -122.7420 140° Southeast 272 313 10,000 -222 Descending FlightAware ADS-B
Tue 06:59:48 PM 47.9830 -122.7130 140° Southeast 267 307 10,000 -115 Level FlightAware ADS-B
Tue 07:00:14 PM 47.9550 -122.6800 142° Southeast 262 302 9,900 -698 Descending FlightAware ADS-B
Tue 07:00:31 PM 47.9400 -122.6620 141° Southeast 257 296 9,500 -2,133 Descending FlightAware ADS-B
Tue 07:00:59 PM 47.9150 -122.6310 140° Southeast 262 302 8,300 -2,069 Descending FlightAware ADS-B
Tue 07:01:29 PM 47.8860 -122.5960 141° Southeast 261 300 7,500 -1,300 Descending FlightAware ADS-B
Tue 07:01:59 PM 47.8590 -122.5620 140° Southeast 258 297 7,000 -1,111 Descending FlightAware ADS-B
Tue 07:02:23 PM 47.8360 -122.5350 142° Southeast 259 298 6,500 -1,222 Descending FlightAware ADS-B
Tue 07:02:53 PM 47.8080 -122.5000 140° Southeast 261 300 5,900 -1,143 Descending FlightAware ADS-B
Tue 07:03:05 PM 47.7970 -122.4870 142° Southeast 261 300 5,700 -973 Descending FlightAware ADS-B
Tue 07:03:30 PM 47.7750 -122.4610 142° Southeast 261 300 5,300 -955 Descending FlightAware ADS-B
Tue 07:03:49 PM 47.7580 -122.4400 140° Southeast 260 299 5,000 -875 Descending FlightAware ADS-B
Tue 07:04:18 PM 47.7270 -122.4060 144° Southeast 245 282 4,600 -679 Descending FlightAware ADS-B
Tue 07:04:42 PM 47.7070 -122.3850 145° Southeast 235 270 4,400 -889 Descending FlightAware ADS-B
Tue 07:05:12 PM 47.6810 -122.3590 146° Southeast 205 236 3,800 -730 Descending FlightAware ADS-B
Tue 07:05:56 PM 47.6680 -122.3460 146° Southeast 188 216 3,500 -676 Descending FlightAware ADS-B
Tue 07:06:23 PM 47.6340 -122.3110 145° Southeast 174 200 3,000 -769 Descending FlightAware ADS-B
Tue 07:06:35 PM 47.6250 -122.3070 163° South 177 204 3,000  Level FlightAware ADS-B
Tue 07:07:01 PM 47.6060 -122.3070 180° South 175 201 3,000 -87 Level FlightAware ADS-B
Tue 07:07:44 PM 47.5730 -122.3070 180° South 169 194 2,900 -702 Descending FlightAware ADS-B
Tue 07:08:39 PM 47.5320 -122.3070 180° South 1,800 -869 Descending FlightAware ADS-B
Tue 07:10:09 PM 47.4670 -122.3080 181° South 152 175 800 -553 Descending FlightAware ADS-B
Tue 07:11:11 PM 47.4297 -122.2783 181° South 168 193 400 -387 Descending Seattle Center

Login

Don't have an account? Register now (free) for customized features, flight alerts, and more!